Time;durP1;ratioP1;P1;durP2;ratioP2;P2;SDS_P1;SDS_P2;PMS_P1;PMS_P2;Temp;Humidity;BMP_temperature;BMP_pressure;BME280_temperature;BME280_humidity;BME280_pressure;Samples;Min_cycle;Max_cycle;Signal;HPM_P1;HPM_P2
2023/09/28 00:01:12;;;;;;;1.70;1.60;;;;;;;19.47;84.20;99617.25;5087983;28;20668;-67
2023/09/28 00:03:39;;;;;;;1.87;1.77;;;;;;;19.47;83.95;99604.25;5076548;28;20732;-67
2023/09/28 00:06:05;;;;;;;1.37;1.30;;;;;;;19.49;83.10;99607.56;5085305;28;20214;-67
2023/09/28 00:08:32;;;;;;;2.23;2.13;;;;;;;19.49;82.81;99604.97;5092470;28;20227;-67
2023/09/28 00:11:00;;;;;;;1.80;1.70;;;;;;;19.32;82.48;99587.78;5090209;28;20610;-67
2023/09/28 00:13:27;;;;;;;1.90;1.80;;;;;;;19.45;81.94;99603.50;5093044;28;20669;-67
2023/09/28 00:16:10;;;;;;;1.30;1.30;;;;;;;19.46;81.85;99597.38;5092747;28;20202;-67
2023/09/28 00:18:37;;;;;;;1.77;1.67;;;;;;;19.31;81.42;99600.91;5092039;28;20196;-67
2023/09/28 00:21:21;;;;;;;1.87;1.70;;;;;;;19.25;82.00;99603.91;5088555;28;20679;-67
2023/09/28 00:23:49;;;;;;;1.87;1.77;;;;;;;19.17;82.31;99603.53;5092452;28;20294;-67
2023/09/28 00:26:34;;;;;;;1.90;1.80;;;;;;;19.12;82.40;99600.38;5093070;28;20288;-67
2023/09/28 00:32:04;;;;;;;1.70;1.63;;;;;;;19.10;83.53;99603.06;5091339;28;20199;-67
2023/09/28 00:34:30;;;;;;;1.97;1.90;;;;;;;19.13;83.67;99596.84;5092980;28;20196;-67
2023/09/28 00:36:57;;;;;;;1.27;1.27;;;;;;;19.13;83.63;99591.63;5088220;28;20703;-67
2023/09/28 00:42:29;;;;;;;1.83;1.73;;;;;;;19.15;83.68;99597.59;5090849;28;22600;-67
2023/09/28 00:44:54;;;;;;;1.50;1.40;;;;;;;19.14;83.47;99598.50;5093003;28;20247;-67
2023/09/28 00:47:23;;;;;;;1.63;1.63;;;;;;;19.10;83.32;99597.03;5091943;28;20231;-67
2023/09/28 00:49:49;;;;;;;1.57;1.43;;;;;;;19.04;83.30;99593.06;5091218;28;20221;-67
2023/09/28 00:52:17;;;;;;;2.50;1.90;;;;;;;18.98;83.81;99588.25;5092205;28;20269;-67
2023/09/28 00:54:45;;;;;;;2.30;2.20;;;;;;;18.91;83.78;99601.69;5087206;28;20226;-67
2023/09/28 00:57:13;;;;;;;0.90;0.90;;;;;;;18.77;84.44;99594.75;5091985;28;20261;-67
2023/09/28 00:59:59;;;;;;;1.47;1.47;;;;;;;18.66;85.32;99592.78;5078266;28;20230;-67
2023/09/28 01:02:26;;;;;;;1.60;1.50;;;;;;;18.53;85.51;99602.25;5092698;28;20206;-67
2023/09/28 01:04:52;;;;;;;1.27;1.27;;;;;;;18.41;85.46;99592.56;5091399;28;20236;-67
2023/09/28 01:07:27;;;;;;;1.37;1.37;;;;;;;18.24;86.65;99593.53;5090260;28;20206;-67
2023/09/28 01:09:53;;;;;;;1.53;1.43;;;;;;;18.19;86.93;99597.34;5091091;28;20218;-67
2023/09/28 01:12:39;;;;;;;1.27;1.27;;;;;;;18.02;88.52;99598.31;5090830;28;20200;-67
2023/09/28 01:15:10;;;;;;;1.97;1.87;;;;;;;17.98;88.94;99593.38;5092143;28;20257;-67
2023/09/28 01:17:55;;;;;;;1.80;1.73;;;;;;;18.00;89.30;99596.69;5090577;28;20206;-67
2023/09/28 01:20:30;;;;;;;3.47;1.87;;;;;;;18.03;89.59;99591.38;5091367;28;20574;-67
2023/09/28 01:22:58;;;;;;;2.00;1.90;;;;;;;18.05;89.60;99586.91;5091796;28;20296;-67
2023/09/28 01:25:26;;;;;;;3.67;1.80;;;;;;;18.12;89.99;99591.66;5091279;28;20257;-67
2023/09/28 01:27:54;;;;;;;1.73;1.73;;;;;;;18.12;90.14;99585.63;5091368;28;20195;-67
2023/09/28 01:30:20;;;;;;;2.80;1.77;;;;;;;18.14;90.46;99584.63;5090454;28;20200;-67
2023/09/28 01:35:31;;;;;;;2.73;1.93;;;;;;;18.15;91.38;99575.09;5090612;28;20677;-67
2023/09/28 01:41:13;;;;;;;2.23;1.60;;;;;;;18.21;92.05;99579.91;5091501;28;20339;-67
2023/09/28 01:43:39;;;;;;;1.93;1.83;;;;;;;18.24;92.68;99584.91;5090841;28;20195;-67
2023/09/28 01:46:24;;;;;;;2.43;2.33;;;;;;;18.24;92.68;99574.53;5089559;28;20686;-67
2023/09/28 01:48:50;;;;;;;2.13;2.03;;;;;;;18.22;92.73;99579.00;5090484;28;20705;-67
2023/09/28 01:51:35;;;;;;;3.73;2.07;;;;;;;18.18;93.34;99574.91;5091186;28;20210;-67
2023/09/28 01:54:03;;;;;;;1.83;1.73;;;;;;;18.08;93.08;99573.75;5090159;28;20292;-67
2023/09/28 01:59:14;;;;;;;2.00;1.90;;;;;;;18.11;93.09;99581.38;5091619;28;20207;-67
2023/09/28 02:04:25;;;;;;;3.77;1.97;;;;;;;18.08;93.13;99586.72;5090492;28;20210;-67
2023/09/28 02:06:51;;;;;;;2.30;2.10;;;;;;;18.12;93.12;99577.84;5090696;28;20195;-67
2023/09/28 02:09:19;;;;;;;1.93;1.83;;;;;;;18.15;92.63;99575.94;5090524;28;20227;-67
2023/09/28 02:14:30;;;;;;;8.07;1.83;;;;;;;18.23;92.22;99573.69;5086461;28;20709;-67
2023/09/28 02:19:41;;;;;;;1.60;1.60;;;;;;;18.23;92.04;99585.84;5089709;28;20198;-67
2023/09/28 02:22:09;;;;;;;2.10;2.00;;;;;;;18.23;92.02;99580.66;5090042;28;20203;-67
2023/09/28 02:24:37;;;;;;;3.87;1.37;;;;;;;18.25;91.88;99584.00;5090726;28;20199;-67
2023/09/28 02:27:02;;;;;;;3.00;2.70;;;;;;;18.26;91.94;99588.25;5087113;28;20211;-67
2023/09/28 02:29:29;;;;;;;2.07;1.97;;;;;;;18.27;91.97;99587.34;5086472;28;20596;-67
2023/09/28 02:31:55;;;;;;;2.17;2.07;;;;;;;18.26;91.85;99588.25;5089213;28;20202;-67
2023/09/28 02:34:22;;;;;;;2.70;2.20;;;;;;;18.27;92.21;99589.94;5090112;28;20199;-67
2023/09/28 02:36:47;;;;;;;1.77;1.67;;;;;;;18.28;91.82;99592.44;5090736;28;20195;-67
2023/09/28 02:39:14;;;;;;;2.30;2.13;;;;;;;18.28;91.62;99581.22;5089899;28;20202;-67
2023/09/28 02:41:42;;;;;;;1.93;1.83;;;;;;;18.25;91.83;99581.41;5090916;28;20260;-67
2023/09/28 02:44:08;;;;;;;2.33;2.13;;;;;;;18.24;92.01;99579.72;5084269;28;20663;-68
2023/09/28 02:46:52;;;;;;;2.13;2.03;;;;;;;18.26;91.79;99586.50;5083128;28;20203;-67
2023/09/28 02:49:38;;;;;;;4.23;2.40;;;;;;;18.27;92.19;99585.56;5082670;28;20215;-67
2023/09/28 02:54:49;;;;;;;1.70;1.60;;;;;;;18.34;92.18;99586.06;5089984;28;20213;-67
2023/09/28 02:57:18;;;;;;;5.33;1.73;;;;;;;18.29;92.70;99588.06;5086421;28;20223;-68
2023/09/28 02:59:45;;;;;;;2.17;1.60;;;;;;;18.25;93.23;99590.03;5076394;28;20548;-67
2023/09/28 03:02:13;;;;;;;3.07;1.80;;;;;;;18.24;93.71;99584.91;5090372;28;20590;-67
2023/09/28 03:04:41;;;;;;;3.23;1.83;;;;;;;18.16;94.00;99577.56;5085097;28;20199;-67
2023/09/28 03:07:08;;;;;;;3.27;1.87;;;;;;;18.24;94.29;99592.69;5089262;28;20210;-67
2023/09/28 03:09:35;;;;;;;1.83;1.73;;;;;;;18.23;94.36;99594.47;5088435;28;20319;-67
2023/09/28 03:12:20;;;;;;;2.53;2.13;;;;;;;18.21;94.66;99598.91;5088417;28;20248;-67
2023/09/28 03:14:48;;;;;;;2.53;2.03;;;;;;;18.18;94.84;99603.44;5089058;28;20208;-67
2023/09/28 03:17:34;;;;;;;1.37;1.37;;;;;;;18.20;95.17;99596.41;5089972;28;20204;-67
2023/09/28 03:20:21;;;;;;;2.17;1.63;;;;;;;18.22;95.43;99602.34;5088926;28;20191;-67
2023/09/28 03:22:49;;;;;;;3.70;2.13;;;;;;;18.25;95.26;99596.97;5089339;28;20337;-67
2023/09/28 03:25:16;;;;;;;1.73;1.63;;;;;;;18.33;94.76;99602.53;5089705;28;20242;-68
2023/09/28 03:27:43;;;;;;;1.50;1.40;;;;;;;18.38;94.73;99603.13;5089133;28;20682;-67
2023/09/28 03:30:13;;;;;;;1.93;1.83;;;;;;;18.42;94.39;99602.00;5089145;28;20247;-67
2023/09/28 03:32:59;;;;;;;4.43;1.93;;;;;;;18.35;94.38;99592.94;5089955;28;20248;-68
2023/09/28 03:35:26;;;;;;;1.60;1.50;;;;;;;18.46;93.87;99600.91;5090183;28;20200;-67
2023/09/28 03:37:56;;;;;;;1.67;1.57;;;;;;;18.53;93.47;99606.59;5089441;28;20201;-67
2023/09/28 03:46:30;;;;;;;2.87;2.10;;;;;;;18.60;93.42;99603.56;5086400;28;20270;-67
2023/09/28 03:48:56;;;;;;;1.40;1.30;;;;;;;18.63;92.95;99600.78;5092728;28;20228;-68
2023/09/28 03:51:23;;;;;;;3.40;2.00;;;;;;;18.67;93.14;99604.03;5093165;28;20201;-67
2023/09/28 03:53:50;;;;;;;1.47;1.43;;;;;;;18.68;92.98;99611.72;5090777;28;20208;-67
2023/09/28 03:56:17;;;;;;;8.27;2.00;;;;;;;18.68;93.54;99605.66;5093259;28;20361;-68
2023/09/28 03:59:02;;;;;;;2.10;2.00;;;;;;;18.71;93.16;99608.91;5092411;28;20205;-67
2023/09/28 04:01:30;;;;;;;1.47;1.47;;;;;;;18.67;93.32;99604.88;5089539;28;20203;-68
2023/09/28 04:03:57;;;;;;;3.00;1.77;;;;;;;18.66;93.50;99613.56;5092592;28;20646;-67
2023/09/28 04:06:24;;;;;;;1.23;1.23;;;;;;;18.68;93.54;99610.88;5093438;28;20196;-67
2023/09/28 04:08:51;;;;;;;1.93;1.77;;;;;;;18.67;93.62;99609.22;5092118;28;20223;-68
2023/09/28 04:11:17;;;;;;;1.50;1.40;;;;;;;18.69;93.24;99605.59;5092777;28;20294;-67
2023/09/28 04:13:44;;;;;;;2.17;2.07;;;;;;;18.67;93.24;99606.63;5091586;28;20211;-67
2023/09/28 04:16:11;;;;;;;2.00;1.90;;;;;;;18.65;93.51;99605.84;5092383;28;20298;-68
2023/09/28 04:18:39;;;;;;;1.70;1.60;;;;;;;18.66;93.83;99610.97;5091555;28;20207;-67
2023/09/28 04:21:06;;;;;;;5.63;1.63;;;;;;;18.65;93.50;99611.91;5091284;28;20252;-68
2023/09/28 04:23:33;;;;;;;1.77;1.67;;;;;;;18.65;93.42;99617.09;5091834;28;20208;-68
2023/09/28 04:25:59;;;;;;;1.57;1.47;;;;;;;18.62;93.72;99612.06;5090685;28;20200;-67
2023/09/28 04:28:26;;;;;;;1.73;1.63;;;;;;;18.64;93.87;99619.78;5088620;28;20563;-67
2023/09/28 04:30:53;;;;;;;3.40;2.10;;;;;;;18.59;94.24;99617.44;5087460;28;20607;-67
2023/09/28 04:33:39;;;;;;;1.93;1.83;;;;;;;18.61;94.36;99622.56;5091614;28;20211;-68
2023/09/28 04:36:07;;;;;;;1.43;1.43;;;;;;;18.60;94.57;99624.31;5091163;28;20199;-67
2023/09/28 04:38:34;;;;;;;4.03;1.50;;;;;;;18.65;94.83;99626.63;5092160;28;20223;-67
2023/09/28 04:41:01;;;;;;;2.57;1.50;;;;;;;18.65;94.25;99622.28;5093065;28;20553;-67
2023/09/28 04:43:27;;;;;;;1.30;1.30;;;;;;;18.66;94.06;99626.56;5092463;28;20195;-67
2023/09/28 04:45:54;;;;;;;2.07;1.70;;;;;;;18.65;93.69;99632.66;5091768;28;20662;-67
2023/09/28 04:48:21;;;;;;;1.73;1.60;;;;;;;18.67;94.19;99630.00;5091502;28;20207;-67
2023/09/28 04:50:49;;;;;;;2.20;2.10;;;;;;;18.66;94.61;99630.91;5087612;28;20230;-67
2023/09/28 04:53:17;;;;;;;3.17;2.17;;;;;;;18.66;94.51;99636.94;5091468;28;20249;-67
2023/09/28 04:55:43;;;;;;;1.40;1.40;;;;;;;18.66;94.16;99638.69;5088209;28;20221;-67
2023/09/28 04:58:10;;;;;;;1.73;1.63;;;;;;;18.65;94.07;99637.84;5090111;28;20208;-68
2023/09/28 05:00:55;;;;;;;3.60;1.43;;;;;;;18.63;94.75;99639.72;5090819;28;20625;-67
2023/09/28 05:03:22;;;;;;;2.10;1.77;;;;;;;18.63;94.42;99639.72;5091492;28;20195;-67
2023/09/28 05:05:50;;;;;;;1.90;1.80;;;;;;;18.63;94.67;99644.06;5092304;28;20202;-68
2023/09/28 05:08:17;;;;;;;1.70;1.57;;;;;;;18.63;94.71;99650.13;5089638;28;20631;-67
2023/09/28 05:10:44;;;;;;;2.07;1.97;;;;;;;18.66;94.61;99649.09;5089274;28;20747;-67
2023/09/28 05:13:14;;;;;;;1.50;1.50;;;;;;;18.69;94.54;99654.94;5092211;28;20204;-68
2023/09/28 05:15:40;;;;;;;2.50;2.00;;;;;;;18.72;94.92;99659.09;5088730;28;20247;-68
2023/09/28 05:18:07;;;;;;;2.93;2.27;;;;;;;18.73;94.84;99659.03;5084922;28;20334;-67
2023/09/28 05:20:54;;;;;;;1.57;1.47;;;;;;;18.80;94.26;99651.72;5088042;28;20685;-64
2023/09/28 05:23:21;;;;;;;1.50;1.47;;;;;;;18.85;93.59;99647.91;5083701;28;20607;-64
2023/09/28 05:25:47;;;;;;;5.77;2.37;;;;;;;18.86;93.76;99647.00;5088695;28;20207;-63
2023/09/28 05:28:14;;;;;;;2.20;2.10;;;;;;;18.91;93.81;99654.47;5087869;28;20625;-64
2023/09/28 05:30:41;;;;;;;2.00;1.50;;;;;;;18.96;93.54;99651.63;5088534;28;20215;-65
2023/09/28 05:33:27;;;;;;;1.93;1.90;;;;;;;18.97;93.52;99659.31;5087200;28;20623;-64
2023/09/28 05:35:55;;;;;;;1.60;1.60;;;;;;;19.03;93.91;99655.53;5088284;28;20224;-64
2023/09/28 05:38:21;;;;;;;1.90;1.80;;;;;;;19.04;93.22;99649.38;5087271;28;20204;-64
2023/09/28 05:40:48;;;;;;;3.37;1.53;;;;;;;19.06;93.17;99653.59;5087899;28;20205;-64
2023/09/28 05:43:15;;;;;;;4.23;1.40;;;;;;;19.09;93.83;99652.56;5087352;28;20306;-64
2023/09/28 05:45:42;;;;;;;2.07;1.97;;;;;;;19.13;93.21;99654.00;5089168;28;20642;-64
2023/09/28 05:48:08;;;;;;;2.20;2.10;;;;;;;19.18;92.43;99657.19;5085693;28;20211;-62
2023/09/28 05:50:54;;;;;;;1.87;1.80;;;;;;;19.22;92.96;99658.69;5089370;28;20215;-65
2023/09/28 05:56:24;;;;;;;6.30;1.63;;;;;;;19.35;91.03;99660.41;5085381;28;20214;-67
2023/09/28 05:58:51;;;;;;;1.87;1.63;;;;;;;19.44;91.29;99656.44;5089609;28;20204;-64
2023/09/28 06:04:03;;;;;;;5.27;1.97;;;;;;;19.50;90.13;99658.66;5086264;28;20214;-64
2023/09/28 06:06:50;;;;;;;2.13;2.03;;;;;;;19.56;89.92;99662.63;5088494;28;20571;-63
2023/09/28 06:09:20;;;;;;;1.80;1.70;;;;;;;19.61;89.03;99674.41;5087410;28;20786;-65
2023/09/28 06:14:31;;;;;;;1.70;1.50;;;;;;;19.74;88.53;99667.50;5088922;28;20245;-65
2023/09/28 06:16:57;;;;;;;1.87;1.70;;;;;;;19.81;88.91;99668.78;5084612;28;20202;-66
2023/09/28 06:19:24;;;;;;;1.63;1.63;;;;;;;19.84;88.24;99673.78;5089558;28;20666;-65
2023/09/28 06:21:51;;;;;;;2.80;1.83;;;;;;;19.95;88.04;99680.09;5082968;28;21685;-65
2023/09/28 06:24:38;;;;;;;1.50;1.40;;;;;;;19.98;87.82;99677.28;5084326;28;20209;-65
2023/09/28 06:27:06;;;;;;;2.07;1.57;;;;;;;20.06;88.67;99680.25;5087066;28;20204;-65
2023/09/28 06:29:32;;;;;;;1.77;1.77;;;;;;;20.08;89.01;99680.97;5088177;28;20311;-64
2023/09/28 06:34:44;;;;;;;2.27;2.03;;;;;;;20.27;87.19;99686.69;5088424;28;20306;-68
2023/09/28 06:37:10;;;;;;;1.73;1.67;;;;;;;20.29;87.58;99679.63;5087087;28;20259;-68
2023/09/28 06:39:39;;;;;;;1.40;1.40;;;;;;;20.34;87.85;99682.75;5088235;28;20207;-67
2023/09/28 06:42:06;;;;;;;1.93;1.80;;;;;;;20.35;87.51;99684.44;5086494;28;20202;-67
2023/09/28 06:44:34;;;;;;;3.47;1.57;;;;;;;20.44;87.81;99689.03;5088884;28;20206;-66
2023/09/28 06:47:01;;;;;;;3.37;1.80;;;;;;;20.54;86.36;99695.28;5088130;28;20666;-66
2023/09/28 06:49:28;;;;;;;1.50;1.50;;;;;;;20.58;86.14;99691.53;5088836;28;20312;-67
2023/09/28 06:51:55;;;;;;;3.17;1.63;;;;;;;20.65;86.09;99690.19;5087233;28;20210;-67
2023/09/28 06:54:43;;;;;;;2.07;1.97;;;;;;;20.73;86.82;99693.13;5086643;28;20207;-67
2023/09/28 07:02:38;;;;;;;1.67;1.57;;;;;;;20.86;82.45;99691.38;5087468;28;20426;-76
2023/09/28 07:05:05;;;;;;;1.20;1.20;;;;;;;21.00;81.00;99687.84;5086703;28;20205;-71
2023/09/28 07:07:32;;;;;;;1.60;1.50;;;;;;;21.07;80.68;99693.44;5082852;28;20446;-67
2023/09/28 07:10:02;;;;;;;1.63;1.53;;;;;;;21.23;80.79;99689.69;5089922;28;20797;-66
2023/09/28 07:12:28;;;;;;;1.33;1.33;;;;;;;21.25;81.02;99693.06;5069158;28;20226;-66
2023/09/28 07:14:55;;;;;;;2.30;2.10;;;;;;;21.30;80.36;99697.94;5083817;28;20202;-67
2023/09/28 07:17:22;;;;;;;1.53;1.40;;;;;;;21.33;79.59;99705.53;5091660;28;20207;-67
2023/09/28 07:19:49;;;;;;;10.67;5.60;;;;;;;21.35;79.27;99707.13;5093613;28;20202;-67
2023/09/28 07:22:16;;;;;;;2.23;2.13;;;;;;;21.41;80.26;99713.69;5093922;28;20207;-67
2023/09/28 07:24:43;;;;;;;1.77;1.67;;;;;;;21.45;79.29;99715.16;5093850;28;20260;-66
2023/09/28 07:27:11;;;;;;;3.00;1.60;;;;;;;21.49;77.94;99711.38;5094380;28;20210;-67
2023/09/28 07:29:38;;;;;;;8.20;4.27;;;;;;;21.61;77.14;99709.69;5094261;28;20352;-67
2023/09/28 07:32:06;;;;;;;6.93;2.03;;;;;;;21.65;78.16;99711.94;5093625;28;20260;-66
2023/09/28 07:37:36;;;;;;;5.03;2.17;;;;;;;21.85;76.43;99707.94;5094598;28;20206;-66
2023/09/28 07:40:40;;;;;;;1.30;1.30;;;;;;;21.97;76.90;99712.31;5094381;28;20292;-66
2023/09/28 07:43:09;;;;;;;1.80;1.30;;;;;;;21.92;76.95;99696.97;5083562;28;20617;-67
2023/09/28 07:48:19;;;;;;;2.13;2.03;;;;;;;22.21;75.23;99714.91;5089039;28;20214;-66
2023/09/28 07:50:46;;;;;;;5.40;2.30;;;;;;;22.30;76.65;99709.00;5091131;28;20220;-67
2023/09/28 07:53:13;;;;;;;2.17;1.90;;;;;;;22.48;78.26;99707.69;5094603;28;20206;-66
2023/09/28 07:55:40;;;;;;;5.27;2.20;;;;;;;22.72;76.99;99713.69;5092411;28;21289;-67
2023/09/28 07:58:08;;;;;;;2.00;1.90;;;;;;;22.91;72.02;99711.38;5092325;28;20256;-67
2023/09/28 08:00:35;;;;;;;1.33;1.33;;;;;;;23.08;75.39;99711.88;5093026;28;20227;-67
2023/09/28 08:05:45;;;;;;;1.67;1.57;;;;;;;23.30;68.92;99712.72;5092221;28;20209;-67
2023/09/28 08:08:12;;;;;;;1.77;1.57;;;;;;;23.34;72.02;99702.84;5083415;28;20715;-67
2023/09/28 08:10:39;;;;;;;14.80;1.73;;;;;;;23.50;69.23;99711.19;5073022;28;20212;-67
2023/09/28 08:13:24;;;;;;;0.97;0.97;;;;;;;23.48;67.71;99706.09;5073313;28;20623;-67
2023/09/28 08:15:53;;;;;;;2.83;1.67;;;;;;;23.60;69.70;99699.03;5073118;28;20203;-67
2023/09/28 08:18:20;;;;;;;3.07;1.30;;;;;;;23.82;68.91;99696.38;5071573;28;21012;-65
2023/09/28 08:23:50;;;;;;;6.90;1.40;;;;;;;24.08;66.30;99698.69;5071210;28;20219;-64
2023/09/28 08:26:17;;;;;;;1.97;1.57;;;;;;;24.14;64.55;99695.59;5067918;28;20238;-64
2023/09/28 08:28:44;;;;;;;1.73;1.63;;;;;;;24.18;64.41;99694.41;5069460;28;20250;-63
2023/09/28 08:31:12;;;;;;;1.33;1.17;;;;;;;24.25;64.33;99691.16;5070781;28;20711;-64
2023/09/28 08:33:39;;;;;;;2.40;2.27;;;;;;;24.32;64.10;99702.81;5072385;28;20681;-64
2023/09/28 08:36:07;;;;;;;2.03;1.30;;;;;;;24.36;63.42;99695.53;5071269;28;20278;-64
2023/09/28 08:38:34;;;;;;;0.93;0.93;;;;;;;24.37;62.51;99697.19;5067928;28;20591;-69
2023/09/28 08:41:03;;;;;;;1.37;1.37;;;;;;;24.35;62.96;99701.72;5070304;28;20207;-65
2023/09/28 08:46:22;;;;;;;0.70;0.70;;;;;;;24.32;61.61;99692.31;5068757;28;20215;-64
2023/09/28 08:48:51;;;;;;;1.20;1.20;;;;;;;24.42;62.77;99692.41;5069378;28;20200;-64
2023/09/28 08:51:18;;;;;;;2.70;0.90;;;;;;;24.37;61.06;99687.53;5068857;28;20220;-64
2023/09/28 08:53:48;;;;;;;1.27;1.27;;;;;;;24.40;62.24;99689.91;5070252;28;20200;-64
2023/09/28 08:56:15;;;;;;;1.07;0.90;;;;;;;24.46;62.14;99689.38;5069952;28;20224;-64
2023/09/28 08:58:44;;;;;;;1.57;1.20;;;;;;;24.50;61.60;99689.97;5070044;28;20253;-64
2023/09/28 09:01:12;;;;;;;1.20;1.10;;;;;;;24.56;61.79;99686.81;5069880;28;20192;-64
2023/09/28 09:03:41;;;;;;;0.73;0.73;;;;;;;24.58;61.02;99687.56;5069735;28;20251;-64
2023/09/28 09:06:11;;;;;;;1.00;1.00;;;;;;;24.62;59.69;99693.38;5068934;28;20227;-64
2023/09/28 09:08:44;;;;;;;0.90;0.90;;;;;;;24.76;61.03;99687.78;5080312;28;20219;-64
2023/09/28 09:11:14;;;;;;;2.27;1.53;;;;;;;24.92;60.07;99691.66;5089628;28;20593;-63
2023/09/28 09:14:08;;;;;;;1.27;1.10;;;;;;;24.92;58.74;99690.81;5089791;28;20199;-64
2023/09/28 09:16:35;;;;;;;3.50;1.27;;;;;;;25.01;59.89;99679.53;5089407;28;20234;-64
2023/09/28 09:19:04;;;;;;;0.77;0.77;;;;;;;25.15;60.11;99679.19;5088280;28;20207;-64
2023/09/28 09:21:40;;;;;;;1.00;1.00;;;;;;;25.33;59.85;99682.03;5088351;28;20292;-63
2023/09/28 09:24:10;;;;;;;0.83;0.80;;;;;;;25.53;61.41;99681.16;5086442;28;20293;-64
2023/09/28 09:29:25;;;;;;;3.37;0.93;;;;;;;25.83;57.54;99678.47;5089857;28;20198;-64
2023/09/28 09:31:52;;;;;;;2.00;0.70;;;;;;;26.02;58.28;99667.97;5088536;28;20698;-63
2023/09/28 09:34:22;;;;;;;0.70;0.70;;;;;;;26.10;56.09;99673.38;5088480;28;20253;-64
2023/09/28 09:37:11;;;;;;;0.60;0.60;;;;;;;26.08;55.49;99659.53;5087572;28;20196;-64
2023/09/28 09:39:38;;;;;;;0.80;0.80;;;;;;;26.42;58.63;99674.91;5088877;28;20199;-64
2023/09/28 09:42:05;;;;;;;0.60;0.60;;;;;;;26.51;56.19;99674.06;5088034;28;20211;-64
2023/09/28 09:44:52;;;;;;;0.60;0.60;;;;;;;26.64;54.83;99671.97;5088678;28;20203;-66
2023/09/28 09:47:20;;;;;;;1.07;0.90;;;;;;;26.81;55.45;99671.28;5088960;28;20211;-66
2023/09/28 09:49:49;;;;;;;0.97;0.97;;;;;;;26.88;54.07;99661.81;5087944;28;20644;-66
2023/09/28 09:52:20;;;;;;;1.03;1.03;;;;;;;26.95;56.80;99657.66;5088528;28;20306;-66
2023/09/28 09:54:47;;;;;;;0.80;0.80;;;;;;;26.82;54.81;99638.72;5090204;28;20246;-66
2023/09/28 09:57:16;;;;;;;7.17;0.83;;;;;;;27.04;57.07;99651.50;5091212;28;20192;-66
2023/09/28 09:59:46;;;;;;;2.00;0.90;;;;;;;27.14;53.73;99652.31;5088062;28;20210;-66
2023/09/28 10:02:22;;;;;;;0.90;0.90;;;;;;;27.26;54.66;99654.75;5083044;28;20286;-64
2023/09/28 10:04:53;;;;;;;1.80;0.80;;;;;;;27.22;52.99;99656.03;5086381;28;20204;-66
2023/09/28 10:07:25;;;;;;;0.97;0.63;;;;;;;27.30;53.89;99650.88;5087894;28;20659;-64
2023/09/28 10:10:12;;;;;;;1.03;1.03;;;;;;;27.38;53.58;99643.06;5082429;28;20200;-65
2023/09/28 10:12:39;;;;;;;0.90;0.90;;;;;;;27.34;53.78;99652.22;5068042;28;20200;-65
2023/09/28 10:15:08;;;;;;;0.60;0.60;;;;;;;27.28;53.39;99647.53;5067604;28;20211;-63
2023/09/28 10:17:55;;;;;;;5.13;0.90;;;;;;;27.37;54.06;99642.22;5069974;28;20196;-63
2023/09/28 10:20:43;;;;;;;1.00;0.90;;;;;;;27.46;53.86;99643.19;5066004;28;20209;-63
2023/09/28 10:23:17;;;;;;;1.07;0.80;;;;;;;27.43;53.19;99631.13;5066703;28;20598;-62
2023/09/28 10:25:55;;;;;;;2.97;0.97;;;;;;;27.43;53.04;99635.56;5075643;28;20658;-62
2023/09/28 10:28:22;;;;;;;2.00;0.90;;;;;;;27.42;52.51;99636.53;5072807;28;20204;-62
2023/09/28 10:30:49;;;;;;;0.80;0.80;;;;;;;27.43;52.68;99635.56;5070668;28;20231;-63
2023/09/28 10:33:16;;;;;;;0.90;0.90;;;;;;;27.25;52.57;99643.41;5065366;28;20226;-63
2023/09/28 10:38:29;;;;;;;0.77;0.77;;;;;;;27.27;52.15;99635.38;5070152;28;20198;-63
2023/09/28 10:41:04;;;;;;;1.40;1.00;;;;;;;27.09;52.95;99638.75;5067730;28;20278;-62
2023/09/28 10:43:51;;;;;;;1.23;1.00;;;;;;;27.17;53.45;99629.31;5071217;28;20218;-62
2023/09/28 10:46:18;;;;;;;1.70;1.60;;;;;;;27.29;53.91;99628.16;5066538;28;20695;-62
2023/09/28 10:48:46;;;;;;;1.03;1.03;;;;;;;27.25;51.58;99621.50;5068383;28;20199;-62
2023/09/28 10:51:16;;;;;;;1.07;0.97;;;;;;;27.35;51.10;99617.03;5071134;28;20580;-62
2023/09/28 10:54:01;;;;;;;1.07;1.07;;;;;;;27.44;52.19;99622.25;5067989;28;20201;-62
2023/09/28 10:56:28;;;;;;;2.00;0.80;;;;;;;27.49;52.95;99616.56;5068796;28;20618;-63
2023/09/28 11:02:00;;;;;;;0.90;0.90;;;;;;;27.67;52.23;99621.84;5072121;28;20302;-63
2023/09/28 11:04:28;;;;;;;0.90;0.90;;;;;;;27.58;52.97;99618.31;5058987;28;20204;-63
2023/09/28 11:06:56;;;;;;;0.70;0.70;;;;;;;27.65;53.08;99619.38;5070406;28;20200;-63
2023/09/28 11:09:41;;;;;;;1.00;1.00;;;;;;;27.71;52.28;99618.75;5079250;28;20715;-62
2023/09/28 11:12:09;;;;;;;1.70;0.80;;;;;;;27.67;51.53;99617.41;5065893;28;20212;-63
2023/09/28 11:14:41;;;;;;;1.20;1.10;;;;;;;27.62;52.06;99615.22;5068595;28;20211;-62
2023/09/28 11:17:27;;;;;;;1.23;1.07;;;;;;;27.57;53.57;99601.66;5065279;28;20204;-62
2023/09/28 11:19:55;;;;;;;0.80;0.80;;;;;;;27.65;52.29;99614.09;5063899;28;20691;-62
2023/09/28 11:25:09;;;;;;;0.77;0.77;;;;;;;27.63;51.60;99605.50;5062811;28;20214;-62
2023/09/28 11:27:36;;;;;;;0.90;0.90;;;;;;;27.67;52.85;99596.31;5068880;28;20296;-62
2023/09/28 11:30:21;;;;;;;1.73;1.03;;;;;;;27.80;52.04;99599.41;5069344;28;20204;-62
2023/09/28 11:33:07;;;;;;;0.70;0.70;;;;;;;27.88;52.22;99599.50;5066038;28;20243;-62
2023/09/28 11:38:20;;;;;;;2.33;1.10;;;;;;;27.88;52.52;99599.50;5068346;28;20227;-62
2023/09/28 11:40:48;;;;;;;2.67;0.97;;;;;;;27.96;52.74;99596.09;5079821;28;20208;-62
2023/09/28 11:43:15;;;;;;;5.33;0.93;;;;;;;28.00;52.44;99598.28;5075204;28;20311;-63
2023/09/28 11:45:42;;;;;;;0.90;0.90;;;;;;;28.07;50.68;99595.91;5066480;28;20607;-62
2023/09/28 11:48:10;;;;;;;2.17;1.10;;;;;;;28.09;52.05;99586.03;5078577;28;20201;-63
2023/09/28 11:50:56;;;;;;;1.00;0.77;;;;;;;28.06;53.70;99584.53;5076692;28;20227;-63
2023/09/28 11:53:42;;;;;;;1.33;1.23;;;;;;;28.10;51.52;99587.69;5066536;28;20222;-62
2023/09/28 11:56:10;;;;;;;3.07;1.07;;;;;;;28.06;50.83;99581.88;5064333;28;20207;-62
2023/09/28 11:58:37;;;;;;;1.43;0.93;;;;;;;27.94;50.41;99583.09;5069155;28;20655;-63
2023/09/28 12:01:05;;;;;;;0.90;0.90;;;;;;;27.94;50.79;99583.09;5071014;28;20215;-62
2023/09/28 12:03:33;;;;;;;0.90;0.90;;;;;;;27.97;51.17;99576.66;5069500;28;20211;-63
2023/09/28 12:06:00;;;;;;;0.70;0.70;;;;;;;28.05;52.17;99574.09;5067753;28;20250;-62
2023/09/28 12:08:29;;;;;;;0.87;0.87;;;;;;;28.13;51.23;99577.66;5080678;28;20223;-63
2023/09/28 12:11:15;;;;;;;0.90;0.90;;;;;;;28.24;52.75;99578.41;5090833;28;20257;-63
2023/09/28 12:13:42;;;;;;;0.90;0.90;;;;;;;28.31;51.99;99585.53;5089992;28;20593;-63
2023/09/28 12:16:09;;;;;;;0.73;0.73;;;;;;;28.37;50.42;99578.81;5089525;28;20333;-63
2023/09/28 12:18:36;;;;;;;0.70;0.70;;;;;;;28.26;49.97;99576.44;5091492;28;20651;-62
2023/09/28 12:21:03;;;;;;;0.87;0.87;;;;;;;28.25;49.82;99574.75;5086217;28;20207;-63
2023/09/28 12:23:31;;;;;;;1.27;1.07;;;;;;;28.30;50.20;99577.78;5089971;28;20237;-63
2023/09/28 12:26:01;;;;;;;0.73;0.60;;;;;;;28.25;49.67;99566.84;5089585;28;20256;-62
2023/09/28 12:31:13;;;;;;;0.80;0.80;;;;;;;28.41;50.85;99575.69;5092063;28;20218;-63
2023/09/28 12:33:40;;;;;;;3.70;0.73;;;;;;;28.29;49.03;99565.56;5090344;28;20280;-63
2023/09/28 12:38:53;;;;;;;0.90;0.90;;;;;;;28.35;49.72;99572.84;5087506;28;20214;-64
2023/09/28 12:41:20;;;;;;;0.70;0.70;;;;;;;28.04;49.49;99568.00;5089938;28;20202;-63
2023/09/28 12:43:46;;;;;;;0.80;0.80;;;;;;;28.06;50.40;99566.06;5091589;28;20614;-63
2023/09/28 12:46:31;;;;;;;1.00;1.00;;;;;;;28.05;49.53;99563.53;5091492;28;20691;-63
2023/09/28 12:48:59;;;;;;;0.77;0.77;;;;;;;28.14;49.93;99563.47;5085118;28;20203;-63
2023/09/28 12:51:26;;;;;;;0.73;0.73;;;;;;;28.18;49.34;99564.00;5083410;28;20690;-63
2023/09/28 12:53:54;;;;;;;3.83;1.00;;;;;;;28.22;49.27;99561.88;5087690;28;20218;-62
2023/09/28 12:56:21;;;;;;;1.20;1.10;;;;;;;28.00;49.81;99553.47;5088627;28;20210;-63
2023/09/28 12:58:48;;;;;;;0.90;0.90;;;;;;;28.03;49.24;99550.53;5091225;28;20203;-63
2023/09/28 13:01:15;;;;;;;1.67;1.00;;;;;;;27.96;50.39;99556.56;5088988;28;20686;-62
2023/09/28 13:03:42;;;;;;;5.90;1.10;;;;;;;27.89;51.99;99551.06;5090729;28;20205;-62
2023/09/28 13:06:10;;;;;;;0.90;0.90;;;;;;;27.64;52.57;99533.41;5090920;28;20679;-62
2023/09/28 13:08:37;;;;;;;0.97;0.93;;;;;;;27.71;53.13;99555.53;5076852;28;20653;-62
2023/09/28 13:11:06;;;;;;;0.83;0.83;;;;;;;27.77;52.99;99560.19;5069113;28;20680;-63